createdAt,value
2018-07-27T00:00:25.271Z,24.6
2018-07-27T00:01:15.610Z,24.6
2018-07-27T00:02:04.339Z,24.6
2018-07-27T00:02:55.485Z,24.6
2018-07-27T00:03:44.978Z,24.5
2018-07-27T00:04:34.845Z,24.5
2018-07-27T00:05:24.882Z,24.6
2018-07-27T00:06:15.457Z,24.5
2018-07-27T00:07:05.031Z,24.5
2018-07-27T00:07:55.388Z,24.5
2018-07-27T00:08:45.349Z,24.5
2018-07-27T00:09:35.628Z,24.5
2018-07-27T00:10:26.122Z,24.5
2018-07-27T00:11:15.812Z,24.5
2018-07-27T00:12:05.928Z,24.5
2018-07-27T00:12:55.990Z,24.6
2018-07-27T00:13:45.765Z,24.5
2018-07-27T00:14:35.791Z,24.5
2018-07-27T00:15:26.199Z,24.6
2018-07-27T00:16:16.240Z,24.5
2018-07-27T00:17:05.688Z,24.6
2018-07-27T00:17:55.524Z,24.6
2018-07-27T00:18:46.394Z,24.5
2018-07-27T00:19:36.162Z,24.6
2018-07-27T00:20:26.565Z,24.6
2018-07-27T00:21:16.085Z,24.6
2018-07-27T00:22:06.216Z,24.6
2018-07-27T00:22:57.007Z,24.6
2018-07-27T00:23:46.789Z,24.5
2018-07-27T00:24:35.778Z,24.5
2018-07-27T00:25:27.031Z,24.5
2018-07-27T00:26:16.813Z,24.6
2018-07-27T00:27:07.054Z,24.5
2018-07-27T00:27:57.706Z,24.5
2018-07-27T00:28:47.741Z,24.5
2018-07-27T00:29:37.237Z,24.5
2018-07-27T00:30:28.150Z,24.5
2018-07-27T00:31:17.670Z,24.5
2018-07-27T00:32:07.977Z,24.5
2018-07-27T00:32:57.810Z,24.5
2018-07-27T00:33:46.954Z,24.5
2018-07-27T00:34:38.265Z,24.5
2018-07-27T00:35:27.429Z,24.5
2018-07-27T00:36:18.559Z,24.5
2018-07-27T00:37:08.056Z,24.5
2018-07-27T00:37:58.375Z,24.5
2018-07-27T00:38:47.907Z,24.5
2018-07-27T00:39:37.426Z,24.5
2018-07-27T00:40:27.183Z,24.5
2018-07-27T00:41:18.085Z,24.5
2018-07-27T00:42:08.195Z,24.5
2018-07-27T00:42:58.008Z,24.5
2018-07-27T00:43:47.725Z,24.5
2018-07-27T00:44:38.691Z,24.5
2018-07-27T00:45:28.015Z,24.5
2018-07-27T00:46:18.240Z,24.5
2018-07-27T00:47:08.523Z,24.5
2018-07-27T00:47:58.620Z,24.5
2018-07-27T00:48:49.302Z,24.4
2018-07-27T00:49:38.707Z,24.4
2018-07-27T00:50:28.579Z,24.4
2018-07-27T00:51:18.879Z,24.4
2018-07-27T00:52:09.774Z,24.4
2018-07-27T00:52:59.020Z,24.5
2018-07-27T00:53:49.406Z,24.4
2018-07-27T00:54:39.159Z,24.4
2018-07-27T00:55:28.663Z,24.4
2018-07-27T00:56:19.258Z,24.4
2018-07-27T00:57:09.115Z,24.4
2018-07-27T00:57:59.683Z,24.4
2018-07-27T00:58:48.388Z,24.4
2018-07-27T00:59:39.817Z,24.4
2018-07-27T01:00:29.630Z,24.4
2018-07-27T01:01:20.257Z,24.4
2018-07-27T01:02:08.651Z,24.4
2018-07-27T01:03:00.493Z,24.4
2018-07-27T01:03:49.859Z,24.4
2018-07-27T01:04:39.681Z,24.4
2018-07-27T01:05:30.233Z,24.4
2018-07-27T01:06:20.328Z,24.4
2018-07-27T01:07:11.005Z,24.4
2018-07-27T01:07:59.932Z,24.4
2018-07-27T01:08:49.154Z,24.4
2018-07-27T01:09:39.475Z,24.4
2018-07-27T01:10:30.077Z,24.4
2018-07-27T01:11:20.988Z,24.4
2018-07-27T01:12:10.419Z,24.4
2018-07-27T01:13:01.145Z,24.4
2018-07-27T01:13:50.345Z,24.4
2018-07-27T01:14:40.949Z,24.4
2018-07-27T01:15:31.329Z,24.4
2018-07-27T01:16:21.102Z,24.4
2018-07-27T01:17:10.723Z,24.4
2018-07-27T01:18:00.902Z,24.4
2018-07-27T01:18:50.930Z,24.4
2018-07-27T01:19:40.458Z,24.4
2018-07-27T01:20:32.062Z,24.4
2018-07-27T01:21:21.715Z,24.4
2018-07-27T01:22:11.249Z,24.4
2018-07-27T01:23:01.297Z,24.4
2018-07-27T01:23:52.147Z,24.4
2018-07-27T01:24:41.808Z,24.4
2018-07-27T01:25:30.735Z,24.4
2018-07-27T01:26:22.353Z,24.4
2018-07-27T01:27:11.379Z,24.4
2018-07-27T01:28:01.673Z,24.4
2018-07-27T01:28:51.269Z,24.4
2018-07-27T01:29:42.180Z,24.4
2018-07-27T01:30:32.733Z,24.4
2018-07-27T01:31:22.484Z,24.4
2018-07-27T01:32:11.166Z,24.4
2018-07-27T01:33:02.632Z,24.4
2018-07-27T01:33:52.689Z,24.4
2018-07-27T01:34:42.787Z,24.4
2018-07-27T01:35:32.879Z,24.4
2018-07-27T01:36:21.808Z,24.4
2018-07-27T01:37:11.605Z,24.4
2018-07-27T01:38:02.445Z,24.4
2018-07-27T01:38:52.608Z,24.4
2018-07-27T01:39:43.150Z,24.4
2018-07-27T01:40:32.120Z,24.4
2018-07-27T01:41:23.294Z,24.4
2018-07-27T01:42:11.708Z,24.4
2018-07-27T01:43:03.400Z,24.4
2018-07-27T01:43:52.878Z,24.4
2018-07-27T01:44:43.289Z,24.4
2018-07-27T01:45:33.037Z,24.4
2018-07-27T01:46:22.575Z,24.4
2018-07-27T01:47:13.153Z,24.4
2018-07-27T01:48:03.537Z,24.4
2018-07-27T01:48:53.811Z,24.4
2018-07-27T01:49:43.611Z,24.4
2018-07-27T01:50:33.960Z,24.4
2018-07-27T01:51:23.206Z,24.3
2018-07-27T01:52:13.285Z,24.4
2018-07-27T01:53:04.106Z,24.4
2018-07-27T01:53:53.921Z,24.4
2018-07-27T01:54:44.035Z,24.4
2018-07-27T01:55:33.572Z,24.4
2018-07-27T01:56:24.411Z,24.4
2018-07-27T01:57:13.877Z,24.3
2018-07-27T01:58:03.921Z,24.4
2018-07-27T01:58:54.589Z,24.4
2018-07-27T01:59:43.457Z,24.3
2018-07-27T02:00:34.979Z,24.3
2018-07-27T02:01:24.787Z,24.4
2018-07-27T02:02:14.910Z,24.3
2018-07-27T02:03:04.879Z,24.3
2018-07-27T02:03:53.845Z,24.3
2018-07-27T02:04:44.256Z,24.3
2018-07-27T02:05:34.599Z,24.4
2018-07-27T02:06:24.411Z,24.4
2018-07-27T02:07:14.511Z,24.3
2018-07-27T02:08:04.846Z,24.3
2018-07-27T02:08:55.470Z,24.3
2018-07-27T02:09:45.007Z,24.3
2018-07-27T02:10:35.585Z,24.3
2018-07-27T02:11:24.738Z,24.3
2018-07-27T02:12:15.405Z,24.3
2018-07-27T02:13:06.401Z,24.3
2018-07-27T02:13:55.844Z,24.3
2018-07-27T02:14:45.914Z,24.3
2018-07-27T02:15:35.330Z,24.3
2018-07-27T02:16:25.699Z,24.3
2018-07-27T02:17:15.244Z,24.3
2018-07-27T02:18:05.853Z,24.3
2018-07-27T02:18:55.348Z,24.3
2018-07-27T02:19:46.004Z,24.3
2018-07-27T02:20:35.716Z,24.3
2018-07-27T02:21:25.591Z,24.3
2018-07-27T02:22:16.148Z,24.3
2018-07-27T02:23:06.158Z,24.3
2018-07-27T02:23:55.694Z,24.3
2018-07-27T02:24:45.741Z,24.3
2018-07-27T02:25:35.607Z,24.3
2018-07-27T02:26:25.638Z,24.3
2018-07-27T02:27:15.937Z,24.3
2018-07-27T02:28:06.602Z,24.3
2018-07-27T02:28:56.911Z,24.3
2018-07-27T02:29:46.727Z,24.3
2018-07-27T02:30:36.037Z,24.3
2018-07-27T02:31:26.847Z,24.3
2018-07-27T02:32:16.949Z,24.3
2018-07-27T02:33:07.591Z,24.3
2018-07-27T02:33:57.916Z,24.3
2018-07-27T02:34:47.448Z,24.3
2018-07-27T02:35:36.651Z,24.3
2018-07-27T02:36:27.535Z,24.3
2018-07-27T02:37:17.538Z,24.3
2018-07-27T02:38:07.723Z,24.3
2018-07-27T02:38:56.891Z,24.3
2018-07-27T02:39:46.683Z,24.3
2018-07-27T02:40:37.632Z,24.3
2018-07-27T02:41:27.935Z,24.3
2018-07-27T02:42:17.675Z,24.3
2018-07-27T02:43:06.658Z,24.3
2018-07-27T02:43:57.617Z,24.3
2018-07-27T02:44:47.072Z,24.3
2018-07-27T02:45:37.214Z,24.3
2018-07-27T02:46:28.630Z,24.3
2018-07-27T02:47:18.415Z,24.3
2018-07-27T02:48:07.890Z,24.3
2018-07-27T02:48:57.673Z,24.3
2018-07-27T02:49:48.024Z,24.3
2018-07-27T02:50:37.846Z,24.3
2018-07-27T02:51:28.722Z,24.3
2018-07-27T02:52:18.472Z,24.3
2018-07-27T02:53:08.090Z,24.3
2018-07-27T02:53:57.554Z,24.3
2018-07-27T02:54:48.395Z,24.3
2018-07-27T02:55:38.456Z,24.3
2018-07-27T02:56:28.768Z,24.3
2018-07-27T02:57:18.561Z,24.3
2018-07-27T02:58:09.198Z,24.3
2018-07-27T02:58:58.642Z,24.2
2018-07-27T02:59:49.337Z,24.3
2018-07-27T03:00:39.081Z,24.3
2018-07-27T03:01:28.939Z,24.3
2018-07-27T03:02:18.933Z,24.3
2018-07-27T03:03:08.742Z,24.2
2018-07-27T03:03:59.721Z,24.2
2018-07-27T03:04:48.886Z,24.3
2018-07-27T03:05:39.513Z,24.2
2018-07-27T03:06:29.577Z,24.2
2018-07-27T03:07:19.656Z,24.2
2018-07-27T03:08:09.991Z,24.2
2018-07-27T03:08:58.354Z,24.2
2018-07-27T03:09:50.299Z,24.3
2018-07-27T03:10:39.120Z,24.2
2018-07-27T03:11:28.809Z,24.2
2018-07-27T03:12:20.079Z,24.2
2018-07-27T03:13:09.528Z,24.2
2018-07-27T03:14:00.160Z,24.2
2018-07-27T03:14:49.674Z,24.2
2018-07-27T03:15:39.986Z,24.2
2018-07-27T03:16:30.154Z,24.2
2018-07-27T03:17:20.056Z,24.2
2018-07-27T03:18:10.743Z,24.2
2018-07-27T03:19:01.040Z,24.2
2018-07-27T03:19:50.555Z,24.2
2018-07-27T03:20:40.924Z,24.2
2018-07-27T03:21:29.818Z,24.2
2018-07-27T03:22:20.174Z,24.2
2018-07-27T03:23:11.353Z,24.2
2018-07-27T03:24:00.340Z,24.2
2018-07-27T03:24:49.855Z,24.2
2018-07-27T03:25:41.407Z,24.2
2018-07-27T03:26:29.949Z,24.2
2018-07-27T03:27:20.526Z,24.1
2018-07-27T03:28:11.212Z,24.2
2018-07-27T03:29:00.667Z,24.2
2018-07-27T03:29:51.588Z,24.2
2018-07-27T03:30:41.868Z,24.2
2018-07-27T03:31:31.756Z,24.2
2018-07-27T03:32:20.491Z,24.2
2018-07-27T03:33:10.510Z,24.2
2018-07-27T03:34:01.142Z,24.1
2018-07-27T03:34:52.015Z,24.1
2018-07-27T03:35:41.509Z,24.2
2018-07-27T03:36:31.549Z,24.1
2018-07-27T03:37:21.880Z,24.1
2018-07-27T03:38:11.758Z,24.1
2018-07-27T03:39:01.420Z,24.1
2018-07-27T03:39:50.404Z,24.1
2018-07-27T03:40:42.162Z,24.1
2018-07-27T03:41:31.780Z,24.1
2018-07-27T03:42:21.899Z,24.1
2018-07-27T03:43:12.340Z,24.1
2018-07-27T03:44:02.713Z,24.2
2018-07-27T03:44:51.051Z,24.1
2018-07-27T03:45:42.356Z,24.1
2018-07-27T03:46:32.028Z,24.1
2018-07-27T03:47:21.805Z,24.1
2018-07-27T03:48:12.796Z,24.1
2018-07-27T03:49:03.026Z,24.1
2018-07-27T03:49:52.000Z,24.1
2018-07-27T03:50:42.373Z,24.1
2018-07-27T03:51:33.013Z,24.1
2018-07-27T03:52:23.027Z,24.1
2018-07-27T03:53:13.313Z,24.1
2018-07-27T03:54:02.566Z,24.1
2018-07-27T03:54:52.630Z,24.1
2018-07-27T03:55:43.324Z,24.1
2018-07-27T03:56:33.040Z,24.1
2018-07-27T03:57:23.163Z,24.1
2018-07-27T03:58:13.201Z,24.1
2018-07-27T03:59:03.242Z,24.1
2018-07-27T03:59:53.041Z,24.1
2018-07-27T04:00:43.360Z,24.1
2018-07-27T04:01:34.152Z,24.1
2018-07-27T04:02:25.331Z,24.1
2018-07-27T04:03:13.027Z,24.1
2018-07-27T04:04:04.503Z,24.1
2018-07-27T04:04:53.430Z,24.1
2018-07-27T04:05:44.107Z,24.1
2018-07-27T04:06:33.532Z,24.1
2018-07-27T04:07:24.698Z,24.1
2018-07-27T04:08:14.833Z,24.1
2018-07-27T04:09:03.506Z,24.1
2018-07-27T04:09:54.120Z,24.1
2018-07-27T04:10:43.649Z,24.1
2018-07-27T04:11:34.800Z,24.1
2018-07-27T04:12:24.849Z,24.1
2018-07-27T04:13:14.643Z,24.1
2018-07-27T04:14:04.217Z,24.1
2018-07-27T04:14:54.733Z,24.1
2018-07-27T04:15:44.526Z,24.1
2018-07-27T04:16:34.916Z,24.1
2018-07-27T04:17:24.202Z,24.1
2018-07-27T04:18:14.055Z,24.1
2018-07-27T04:19:04.362Z,24.1
2018-07-27T04:19:55.244Z,24.2
2018-07-27T04:20:44.745Z,24.1
2018-07-27T04:21:35.796Z,24.1
2018-07-27T04:22:25.031Z,24.1
2018-07-27T04:23:15.100Z,24.1
2018-07-27T04:24:04.904Z,24.1
2018-07-27T04:24:55.002Z,24.1
2018-07-27T04:25:45.311Z,24.1
2018-07-27T04:26:36.409Z,24.1
2018-07-27T04:27:25.492Z,24.1
2018-07-27T04:28:15.994Z,24.1
2018-07-27T04:29:05.843Z,24.1
2018-07-27T04:29:56.206Z,24.1
2018-07-27T04:30:45.382Z,24.1
2018-07-27T04:31:36.576Z,24.1
2018-07-27T04:32:25.303Z,24.2
2018-07-27T04:33:15.860Z,24.1
2018-07-27T04:34:06.777Z,24.1
2018-07-27T04:34:56.510Z,24.1
2018-07-27T04:35:47.629Z,24.2
2018-07-27T04:36:36.662Z,24.1
2018-07-27T04:37:26.186Z,24.2
2018-07-27T04:38:16.794Z,24.2
2018-07-27T04:39:07.187Z,24.1
2018-07-27T04:39:56.668Z,24.2
2018-07-27T04:40:46.706Z,24.2
2018-07-27T04:41:37.267Z,24.2
2018-07-27T04:42:26.880Z,24.1
2018-07-27T04:43:16.919Z,24.2
2018-07-27T04:44:07.515Z,24.1
2018-07-27T04:44:57.316Z,24.2
2018-07-27T04:45:47.061Z,24.2
2018-07-27T04:46:36.992Z,24.2
2018-07-27T04:47:27.373Z,24.2
2018-07-27T04:48:18.009Z,24.2
2018-07-27T04:49:07.401Z,24.2
2018-07-27T04:49:57.139Z,24.2
2018-07-27T04:50:47.249Z,24.2
2018-07-27T04:51:37.890Z,24.2
2018-07-27T04:52:27.112Z,24.2
2018-07-27T04:53:17.973Z,24.2
2018-07-27T04:54:07.836Z,24.2
2018-07-27T04:54:57.506Z,24.2
2018-07-27T04:55:47.036Z,24.1
2018-07-27T04:56:39.430Z,24.2
2018-07-27T04:57:27.486Z,24.2
2018-07-27T04:58:17.894Z,24.2
2018-07-27T04:59:07.904Z,24.2
2018-07-27T04:59:57.387Z,24.2
2018-07-27T05:00:48.075Z,24.2
2018-07-27T05:01:38.594Z,24.2
2018-07-27T05:02:28.943Z,24.2
2018-07-27T05:03:17.945Z,24.2
2018-07-27T05:04:09.013Z,24.2
2018-07-27T05:04:58.736Z,24.2
2018-07-27T05:05:48.859Z,24.2
2018-07-27T05:06:38.993Z,24.2
2018-07-27T05:07:28.233Z,24.2
2018-07-27T05:08:18.343Z,24.2
2018-07-27T05:09:09.207Z,24.2
2018-07-27T05:09:59.296Z,24.2
2018-07-27T05:10:49.527Z,24.2
2018-07-27T05:11:39.660Z,24.2
2018-07-27T05:12:28.977Z,24.2
2018-07-27T05:13:19.055Z,24.2
2018-07-27T05:14:09.798Z,24.2
2018-07-27T05:14:59.034Z,24.2
2018-07-27T05:15:49.704Z,24.2
2018-07-27T05:16:39.448Z,24.2
2018-07-27T05:17:29.047Z,24.2
2018-07-27T05:18:20.948Z,24.2
2018-07-27T05:19:09.455Z,24.2
2018-07-27T05:19:59.456Z,24.2
2018-07-27T05:20:50.172Z,24.3
2018-07-27T05:21:39.383Z,24.2
2018-07-27T05:22:28.447Z,24.2
2018-07-27T05:23:19.575Z,24.2
2018-07-27T05:24:08.498Z,24.2
2018-07-27T05:24:59.695Z,24.3
2018-07-27T05:25:49.648Z,24.2
2018-07-27T05:26:39.997Z,24.2
2018-07-27T05:27:30.338Z,24.3
2018-07-27T05:28:20.152Z,24.3
2018-07-27T05:29:10.710Z,24.2
2018-07-27T05:30:00.875Z,24.3
2018-07-27T05:30:50.566Z,24.3
2018-07-27T05:31:40.323Z,24.3
2018-07-27T05:32:29.097Z,24.3
2018-07-27T05:33:19.435Z,24.2
2018-07-27T05:34:09.976Z,24.3
2018-07-27T05:35:00.385Z,24.3
2018-07-27T05:35:50.167Z,24.3
2018-07-27T05:36:40.785Z,24.3
2018-07-27T05:37:31.112Z,24.3
2018-07-27T05:38:20.596Z,24.3
2018-07-27T05:39:10.964Z,24.3
2018-07-27T05:40:01.270Z,24.2
2018-07-27T05:40:51.309Z,24.2
2018-07-27T05:41:40.566Z,24.3
2018-07-27T05:42:31.272Z,24.3
2018-07-27T05:43:21.512Z,24.3
2018-07-27T05:44:11.670Z,24.3
2018-07-27T05:45:00.519Z,24.3
2018-07-27T05:45:50.841Z,24.3
2018-07-27T05:46:40.915Z,24.3
2018-07-27T05:47:31.933Z,24.3
2018-07-27T05:48:20.807Z,24.2
2018-07-27T05:49:11.490Z,24.2
2018-07-27T05:50:02.017Z,24.3
2018-07-27T05:50:52.653Z,24.3
2018-07-27T05:51:42.431Z,24.3
2018-07-27T05:52:32.493Z,24.3
2018-07-27T05:53:21.954Z,24.3
2018-07-27T05:54:12.635Z,24.3
2018-07-27T05:55:01.883Z,24.2
2018-07-27T05:55:52.963Z,24.3
2018-07-27T05:56:42.806Z,24.3
2018-07-27T05:57:32.888Z,24.3
2018-07-27T05:58:22.641Z,24.3
2018-07-27T05:59:12.455Z,24.3
2018-07-27T06:00:02.773Z,24.3
2018-07-27T06:00:52.877Z,24.3
2018-07-27T06:01:43.495Z,24.3
2018-07-27T06:02:32.874Z,24.3
2018-07-27T06:03:22.570Z,24.3
2018-07-27T06:04:13.161Z,24.3
2018-07-27T06:05:04.131Z,24.3
2018-07-27T06:05:53.837Z,24.3
2018-07-27T06:06:43.292Z,24.3
2018-07-27T06:07:32.815Z,24.3
2018-07-27T06:08:23.431Z,24.3
2018-07-27T06:09:12.658Z,24.3
2018-07-27T06:10:02.734Z,24.3
2018-07-27T06:10:53.377Z,24.3
2018-07-27T06:11:43.994Z,24.3
2018-07-27T06:12:33.193Z,24.3
2018-07-27T06:13:23.295Z,24.3
2018-07-27T06:14:14.481Z,24.3
2018-07-27T06:15:03.647Z,24.3
2018-07-27T06:15:54.224Z,24.3
2018-07-27T06:16:44.004Z,24.3
2018-07-27T06:17:34.377Z,24.3
2018-07-27T06:18:24.547Z,24.3
2018-07-27T06:19:14.796Z,24.3
2018-07-27T06:20:04.553Z,24.3
2018-07-27T06:20:54.443Z,24.3
2018-07-27T06:21:44.990Z,24.3
2018-07-27T06:22:34.235Z,24.3
2018-07-27T06:23:24.583Z,24.3
2018-07-27T06:24:18.482Z,24.3
2018-07-27T06:25:04.145Z,24.3
2018-07-27T06:25:54.840Z,24.3
2018-07-27T06:26:44.599Z,24.3
2018-07-27T06:27:35.135Z,24.3
2018-07-27T06:28:25.886Z,24.3
2018-07-27T06:29:16.536Z,24.3
2018-07-27T06:30:07.422Z,24.3
2018-07-27T06:30:55.672Z,24.3
2018-07-27T06:31:45.706Z,24.3
2018-07-27T06:32:35.105Z,24.3
2018-07-27T06:33:25.065Z,24.3
2018-07-27T06:34:15.419Z,24.3
2018-07-27T06:35:04.940Z,24.3
2018-07-27T06:35:54.135Z,24.3
2018-07-27T06:36:45.157Z,24.3
2018-07-27T06:37:35.387Z,24.3
2018-07-27T06:38:25.442Z,24.3
2018-07-27T06:39:17.336Z,24.3
2018-07-27T06:40:06.151Z,24.3
2018-07-27T06:40:55.367Z,24.3
2018-07-27T06:41:45.465Z,24.3
2018-07-27T06:42:35.294Z,24.3
2018-07-27T06:43:25.860Z,24.3
2018-07-27T06:44:15.897Z,24.3
2018-07-27T06:45:06.167Z,24.3
2018-07-27T06:45:55.580Z,24.3
2018-07-27T06:46:45.983Z,24.3
2018-07-27T06:47:35.349Z,24.3
2018-07-27T06:48:26.197Z,24.3
2018-07-27T06:49:15.000Z,24.3
2018-07-27T06:50:05.776Z,24.3
2018-07-27T06:50:56.787Z,24.3
2018-07-27T06:51:47.041Z,24.3
2018-07-27T06:52:38.493Z,24.3
2018-07-27T06:53:26.373Z,24.3
2018-07-27T06:54:16.450Z,24.3
2018-07-27T06:55:05.799Z,24.3
2018-07-27T06:55:56.825Z,24.3
2018-07-27T06:56:46.441Z,24.3
2018-07-27T06:57:37.175Z,24.3
2018-07-27T06:58:27.573Z,24.3
2018-07-27T06:59:17.592Z,24.3
2018-07-27T07:00:06.267Z,24.3
2018-07-27T07:00:57.218Z,24.3
2018-07-27T07:01:48.107Z,24.3
2018-07-27T07:02:36.745Z,24.3
2018-07-27T07:03:27.611Z,24.3
2018-07-27T07:04:17.157Z,24.3
2018-07-27T07:05:06.988Z,24.3
2018-07-27T07:05:57.470Z,24.3
2018-07-27T07:06:47.684Z,24.3
2018-07-27T07:07:37.683Z,24.3
2018-07-27T07:08:27.192Z,24.3
2018-07-27T07:09:18.525Z,24.3
2018-07-27T07:10:07.362Z,24.3
2018-07-27T07:10:57.662Z,24.3
2018-07-27T07:11:48.305Z,24.3
2018-07-27T07:12:37.784Z,24.3
2018-07-27T07:13:27.477Z,24.3
2018-07-27T07:14:18.193Z,24.3
2018-07-27T07:15:07.747Z,24.3
2018-07-27T07:15:58.551Z,24.3
2018-07-27T07:16:48.696Z,24.3
2018-07-27T07:17:38.483Z,24.3
2018-07-27T07:18:27.721Z,24.3
2018-07-27T07:19:19.122Z,24.3
2018-07-27T07:20:09.451Z,24.3
2018-07-27T07:20:58.687Z,24.3
2018-07-27T07:21:48.819Z,24.3
2018-07-27T07:22:38.023Z,24.3
2018-07-27T07:23:29.697Z,24.3
2018-07-27T07:24:19.758Z,24.3
2018-07-27T07:25:10.049Z,24.3
2018-07-27T07:26:07.310Z,24.3
2018-07-27T07:26:49.715Z,24.3
2018-07-27T07:27:39.470Z,24.3
2018-07-27T07:28:30.064Z,24.4
2018-07-27T07:29:19.594Z,24.3
2018-07-27T07:30:09.707Z,24.3
2018-07-27T07:31:00.287Z,24.3
2018-07-27T07:31:50.100Z,24.4
2018-07-27T07:32:39.587Z,24.3
2018-07-27T07:33:30.238Z,24.3
2018-07-27T07:34:20.565Z,24.3
2018-07-27T07:35:10.587Z,24.3
2018-07-27T07:35:59.535Z,24.3
2018-07-27T07:36:49.933Z,24.4
2018-07-27T07:37:40.684Z,24.4
2018-07-27T07:38:30.334Z,24.4
2018-07-27T07:39:21.697Z,24.3
2018-07-27T07:40:11.019Z,24.4
2018-07-27T07:41:00.860Z,24.4
2018-07-27T07:41:50.600Z,24.4
2018-07-27T07:42:41.310Z,24.4
2018-07-27T07:43:29.623Z,24.4
2018-07-27T07:44:20.908Z,24.3
2018-07-27T07:45:12.033Z,24.3
2018-07-27T07:46:00.494Z,24.3
2018-07-27T07:46:50.530Z,24.4
2018-07-27T07:47:41.604Z,24.4
2018-07-27T07:48:31.824Z,24.4
2018-07-27T07:49:22.048Z,24.4
2018-07-27T07:50:11.734Z,24.3
2018-07-27T07:51:01.752Z,24.4
2018-07-27T07:51:51.055Z,24.4
2018-07-27T07:52:40.786Z,24.4
2018-07-27T07:53:31.939Z,24.3
2018-07-27T07:54:21.677Z,24.4
2018-07-27T07:55:12.259Z,24.4
2018-07-27T07:56:01.584Z,24.4
2018-07-27T07:56:52.189Z,24.4
2018-07-27T07:57:42.041Z,24.4
2018-07-27T07:58:30.819Z,24.4
2018-07-27T07:59:22.614Z,24.4
2018-07-27T08:00:12.139Z,24.4
2018-07-27T08:01:02.178Z,24.4
2018-07-27T08:01:51.794Z,24.4
2018-07-27T08:02:41.331Z,24.4
2018-07-27T08:03:31.609Z,24.4
2018-07-27T08:04:21.975Z,24.4
2018-07-27T08:05:11.836Z,24.4
2018-07-27T08:06:02.381Z,24.4
2018-07-27T08:06:52.392Z,24.4
2018-07-27T08:07:41.894Z,24.4
2018-07-27T08:08:32.377Z,24.4
2018-07-27T08:09:22.080Z,24.4
2018-07-27T08:10:12.347Z,24.4
2018-07-27T08:11:02.388Z,24.4
2018-07-27T08:11:53.203Z,24.4
2018-07-27T08:12:43.250Z,24.4
2018-07-27T08:13:33.195Z,24.4
2018-07-27T08:14:22.662Z,24.4
2018-07-27T08:15:13.563Z,24.4
2018-07-27T08:16:02.834Z,24.4
2018-07-27T08:16:51.935Z,24.4
2018-07-27T08:17:42.917Z,24.4
2018-07-27T08:18:33.009Z,24.4
2018-07-27T08:19:23.578Z,24.4
2018-07-27T08:20:13.342Z,24.4
2018-07-27T08:21:03.263Z,24.4
2018-07-27T08:21:54.242Z,24.4
2018-07-27T08:22:43.587Z,24.4
2018-07-27T08:23:34.395Z,24.4
2018-07-27T08:24:23.831Z,24.4
2018-07-27T08:25:14.177Z,24.4
2018-07-27T08:26:05.279Z,24.5
2018-07-27T08:26:53.503Z,24.4
2018-07-27T08:27:43.323Z,24.4
2018-07-27T08:28:33.361Z,24.5
2018-07-27T08:29:24.007Z,24.4
2018-07-27T08:30:13.584Z,24.5
2018-07-27T08:31:04.411Z,24.4
2018-07-27T08:31:54.582Z,24.5
2018-07-27T08:32:44.552Z,24.4
2018-07-27T08:33:34.337Z,24.5
2018-07-27T08:34:24.868Z,24.5
2018-07-27T08:35:14.493Z,24.5
2018-07-27T08:36:04.616Z,24.5
2018-07-27T08:36:53.167Z,24.5
2018-07-27T08:37:45.787Z,24.5
2018-07-27T08:38:35.418Z,24.5
2018-07-27T08:39:24.047Z,24.5
2018-07-27T08:40:15.482Z,24.5
2018-07-27T08:41:05.347Z,24.5
2018-07-27T08:41:55.584Z,24.5
2018-07-27T08:42:45.469Z,24.5
2018-07-27T08:43:35.874Z,24.5
2018-07-27T08:44:25.465Z,24.5
2018-07-27T08:45:15.632Z,24.5
2018-07-27T08:46:05.737Z,24.5
2018-07-27T08:46:56.086Z,24.5
2018-07-27T08:47:46.062Z,24.6
2018-07-27T08:48:36.388Z,24.5
2018-07-27T08:49:25.652Z,24.5
2018-07-27T08:50:16.315Z,24.6
2018-07-27T08:51:05.495Z,24.6
2018-07-27T08:51:56.433Z,24.6
2018-07-27T08:52:45.936Z,24.6
2018-07-27T08:53:36.560Z,24.6
2018-07-27T08:54:26.583Z,24.6
2018-07-27T08:55:16.310Z,24.6
2018-07-27T08:56:05.314Z,24.6
2018-07-27T08:56:55.851Z,24.6
2018-07-27T08:57:45.761Z,24.6
2018-07-27T08:58:36.252Z,24.6
2018-07-27T08:59:25.823Z,24.6
2018-07-27T09:00:16.961Z,24.6
2018-07-27T09:01:07.051Z,24.6
2018-07-27T09:01:56.303Z,24.6
2018-07-27T09:02:45.960Z,24.6
2018-07-27T09:03:36.928Z,24.6
2018-07-27T09:04:25.445Z,24.6
2018-07-27T09:05:16.570Z,24.6
2018-07-27T09:06:06.666Z,24.6
2018-07-27T09:06:56.337Z,24.6
2018-07-27T09:07:46.142Z,24.6
2018-07-27T09:08:37.041Z,24.6
2018-07-27T09:09:27.175Z,24.6
2018-07-27T09:10:16.749Z,24.6
2018-07-27T09:11:06.928Z,24.6
2018-07-27T09:11:57.757Z,24.6
2018-07-27T09:12:47.715Z,24.6
2018-07-27T09:13:38.115Z,24.6
2018-07-27T09:14:26.740Z,24.6
2018-07-27T09:15:18.497Z,24.6
2018-07-27T09:16:08.302Z,24.6
2018-07-27T09:16:58.033Z,24.6
2018-07-27T09:17:48.684Z,24.6
2018-07-27T09:18:38.702Z,24.6
2018-07-27T09:19:28.042Z,24.6
2018-07-27T09:20:18.020Z,24.6
2018-07-27T09:21:09.011Z,24.6
2018-07-27T09:21:59.014Z,24.6
2018-07-27T09:22:48.514Z,24.6
2018-07-27T09:23:38.614Z,24.6
2018-07-27T09:24:31.320Z,24.6
2018-07-27T09:25:27.098Z,24.6
2018-07-27T09:26:09.250Z,24.6
2018-07-27T09:26:59.429Z,24.6
2018-07-27T09:27:48.582Z,24.6
2018-07-27T09:28:39.491Z,24.6
2018-07-27T09:29:29.629Z,24.6
2018-07-27T09:30:19.079Z,24.6
2018-07-27T09:31:09.177Z,24.6
2018-07-27T09:31:58.393Z,24.6
2018-07-27T09:32:48.653Z,24.6
2018-07-27T09:33:39.232Z,24.6
2018-07-27T09:34:28.798Z,24.6
2018-07-27T09:35:18.661Z,24.6
2018-07-27T09:36:09.506Z,24.6
2018-07-27T09:36:59.033Z,24.6
2018-07-27T09:37:49.149Z,24.7
2018-07-27T09:38:39.526Z,24.6
2018-07-27T09:39:29.226Z,24.7
2018-07-27T09:40:18.963Z,24.6
2018-07-27T09:41:09.651Z,24.6
2018-07-27T09:41:59.048Z,24.6
2018-07-27T09:42:49.458Z,24.6
2018-07-27T09:43:39.966Z,24.6
2018-07-27T09:44:29.785Z,24.7
2018-07-27T09:45:19.650Z,24.6
2018-07-27T09:46:10.373Z,24.6
2018-07-27T09:47:00.147Z,24.7
2018-07-27T09:47:49.892Z,24.7
2018-07-27T09:48:39.309Z,24.6
2018-07-27T09:49:31.238Z,24.6
2018-07-27T09:50:20.430Z,24.7
2018-07-27T09:51:11.310Z,24.6
2018-07-27T09:52:00.852Z,24.6
2018-07-27T09:52:50.819Z,24.7
2018-07-27T09:53:40.431Z,24.6
2018-07-27T09:54:30.732Z,24.7
2018-07-27T09:55:21.494Z,24.7
2018-07-27T09:56:10.810Z,24.7
2018-07-27T09:57:01.120Z,24.7
2018-07-27T09:57:51.629Z,24.7
2018-07-27T09:58:41.863Z,24.7
2018-07-27T09:59:31.282Z,24.7
2018-07-27T10:00:20.878Z,24.7
2018-07-27T10:01:11.429Z,24.7
2018-07-27T10:02:02.074Z,24.7
2018-07-27T10:02:51.764Z,24.7
2018-07-27T10:03:41.927Z,24.7
2018-07-27T10:04:31.908Z,24.7
2018-07-27T10:05:22.264Z,24.7
2018-07-27T10:06:11.811Z,24.7
2018-07-27T10:07:02.142Z,24.7
2018-07-27T10:07:51.357Z,24.7
2018-07-27T10:08:41.081Z,24.7
2018-07-27T10:09:31.178Z,24.7
2018-07-27T10:10:22.371Z,24.7
2018-07-27T10:11:11.825Z,24.7
2018-07-27T10:12:01.669Z,24.7
2018-07-27T10:12:51.626Z,24.7
2018-07-27T10:13:42.333Z,24.8
2018-07-27T10:14:32.359Z,24.7
2018-07-27T10:15:20.786Z,24.7
2018-07-27T10:16:12.341Z,24.7
2018-07-27T10:17:02.588Z,24.7
2018-07-27T10:17:52.378Z,24.7
2018-07-27T10:18:42.387Z,24.8
2018-07-27T10:19:32.475Z,24.7
2018-07-27T10:20:22.100Z,24.7
2018-07-27T10:21:12.643Z,24.7
2018-07-27T10:22:03.542Z,24.7
2018-07-27T10:22:53.671Z,24.7
2018-07-27T10:23:42.590Z,24.8
2018-07-27T10:24:32.692Z,24.8
2018-07-27T10:25:23.533Z,24.8
2018-07-27T10:26:13.482Z,24.8
2018-07-27T10:27:03.226Z,24.7
2018-07-27T10:27:54.032Z,24.7
2018-07-27T10:28:43.567Z,24.8
2018-07-27T10:29:33.884Z,24.8
2018-07-27T10:30:23.458Z,24.8
2018-07-27T10:31:14.928Z,24.8
2018-07-27T10:32:04.129Z,24.8
2018-07-27T10:32:54.450Z,24.8
2018-07-27T10:33:43.710Z,24.8
2018-07-27T10:34:34.304Z,24.8
2018-07-27T10:35:23.795Z,24.8
2018-07-27T10:36:14.702Z,24.8
2018-07-27T10:37:04.249Z,24.8
2018-07-27T10:37:54.841Z,24.8
2018-07-27T10:38:46.217Z,24.8
2018-07-27T10:39:34.991Z,24.8
2018-07-27T10:40:24.726Z,24.8
2018-07-27T10:41:14.819Z,24.8
2018-07-27T10:42:05.129Z,24.8
2018-07-27T10:42:54.259Z,24.8
2018-07-27T10:43:44.478Z,24.8
2018-07-27T10:44:34.797Z,24.8
2018-07-27T10:45:24.841Z,24.8
2018-07-27T10:46:14.893Z,24.8
2018-07-27T10:47:04.081Z,24.8
2018-07-27T10:47:53.856Z,24.8
2018-07-27T10:48:44.797Z,24.8
2018-07-27T10:49:35.125Z,24.7
2018-07-27T10:50:26.608Z,24.8
2018-07-27T10:51:14.690Z,24.8
2018-07-27T10:52:04.185Z,24.8
2018-07-27T10:52:55.829Z,24.8
2018-07-27T10:53:44.609Z,24.9
2018-07-27T10:54:34.657Z,24.8
2018-07-27T10:55:24.450Z,24.8
2018-07-27T10:56:14.257Z,24.8
2018-07-27T10:57:05.942Z,24.8
2018-07-27T10:57:55.512Z,24.8
2018-07-27T10:58:45.394Z,24.8
2018-07-27T10:59:35.636Z,24.8
2018-07-27T11:00:25.743Z,24.8
2018-07-27T11:01:16.413Z,24.8
2018-07-27T11:02:06.146Z,24.8
2018-07-27T11:02:56.505Z,24.8
2018-07-27T11:03:46.400Z,24.8
2018-07-27T11:04:36.940Z,24.8
2018-07-27T11:05:26.698Z,24.8
2018-07-27T11:06:16.493Z,24.8